Terminal Aerodrome Forecast
Issued by NWS

Current Version | Previous Version | Text Only | Print | Product List | Glossary On
Versions: 1 2 3 4 5 6 7 8 9 10 11 12 13
000
FTUS45 KABQ 242300
TAFROW
TAF
KROW 242320Z 2500/2524 30012G22KT P6SM FEW200
     FM250200 34012G24KT P6SM SKC
     FM251100 33009KT P6SM SKC
     FM251700 18009KT P6SM SKC=

USA.gov is the U.S. government's official web portal to all federal, state and local government web resources and services.